Terminal Aerodrome Forecast
Issued by NWS

Current Version | Previous Version | Text Only | Print | Product List | Glossary On
Versions: 1 2 3 4 5 6 7 8 9 10 11 12 13 14 15 16
000
FTUS42 TJSJ 231700
TAFKPK
TAF
TKPK 231728Z 2318/2418 10009KT P6SM FEW020 SCT050
     FM232100 08006KT P6SM FEW022 SCT070
     FM241300 11008KT P6SM VCSH FEW020 BKN070=

USA.gov is the U.S. government's official web portal to all federal, state and local government web resources and services.